createdAt,value
2023-03-06T00:07:58.131Z,95.60
2023-03-06T00:18:05.162Z,95.80
2023-03-06T00:28:08.744Z,95.60
2023-03-06T00:38:14.311Z,95.50
2023-03-06T00:48:17.906Z,95.30
2023-03-06T00:58:22.967Z,95.40
2023-03-06T01:08:26.758Z,95.40
2023-03-06T01:18:31.736Z,96.10
2023-03-06T01:28:37.445Z,96.20
2023-03-06T01:38:42.566Z,96.40
2023-03-06T01:48:47.837Z,96.50
2023-03-06T01:58:53.383Z,97.40
2023-03-06T02:08:57.492Z,95.60
2023-03-06T02:19:05.670Z,95.10
2023-03-06T02:29:11.008Z,95.60
2023-03-06T02:39:16.031Z,96.50
2023-03-06T02:49:21.263Z,98.80
2023-03-06T02:59:25.992Z,99.90
2023-03-06T03:09:36.672Z,99.90
2023-03-06T03:19:40.390Z,99.90
2023-03-06T03:29:45.344Z,99.80
2023-03-06T03:39:49.069Z,99.60
2023-03-06T03:49:54.038Z,99.90
2023-03-06T03:59:57.947Z,99.90
2023-03-06T04:10:02.921Z,99.90
2023-03-06T04:20:08.083Z,99.90
2023-03-06T04:30:14.419Z,99.90
2023-03-06T04:40:21.514Z,99.90
2023-03-06T04:50:32.345Z,99.90
2023-03-06T05:00:36.006Z,99.90
2023-03-06T05:10:40.930Z,99.90
2023-03-06T05:20:44.981Z,99.90
2023-03-06T05:30:50.361Z,99.90
2023-03-06T05:40:54.313Z,99.90
2023-03-06T05:51:03.254Z,99.90
2023-03-06T06:01:11.726Z,99.90
2023-03-06T06:11:18.232Z,99.90
2023-03-06T06:21:22.019Z,99.90
2023-03-06T06:31:26.975Z,99.90
2023-03-06T06:41:50.622Z,99.90
2023-03-06T06:51:56.615Z,99.90
2023-03-06T07:02:00.266Z,99.90
2023-03-06T07:12:05.978Z,99.90
2023-03-06T07:22:09.745Z,99.90
2023-03-06T07:32:14.810Z,99.90
2023-03-06T07:42:18.522Z,99.90
2023-03-06T07:52:23.878Z,99.90
2023-03-06T08:02:27.824Z,99.90
2023-03-06T08:12:33.024Z,99.90
2023-03-06T08:22:36.953Z,98.90
2023-03-06T08:32:42.229Z,98.10
2023-03-06T08:42:46.767Z,96.30
2023-03-06T08:52:51.769Z,94.80
2023-03-06T09:02:55.479Z,93.70
2023-03-06T09:13:00.752Z,92.70
2023-03-06T09:23:04.609Z,92.70
2023-03-06T09:33:09.894Z,93.80
2023-03-06T09:43:22.135Z,95.80
2023-03-06T09:54:00.321Z,98.50
2023-03-06T10:04:13.120Z,98.30
2023-03-06T10:14:28.204Z,97.20
2023-03-06T10:24:50.388Z,95.30
2023-03-06T10:35:00.606Z,94.70
2023-03-06T10:45:14.696Z,92.60
2023-03-06T10:55:31.034Z,92.50
2023-03-06T11:05:34.994Z,91.70
2023-03-06T11:15:39.954Z,91.00
2023-03-06T11:25:50.375Z,90.20
2023-03-06T11:36:05.380Z,87.40
2023-03-06T11:46:17.417Z,88.80
2023-03-06T11:56:32.840Z,89.10
2023-03-06T12:06:47.009Z,89.60
2023-03-06T12:17:13.435Z,88.20
2023-03-06T12:27:27.397Z,86.60
2023-03-06T12:37:48.180Z,82.40
2023-03-06T12:47:56.542Z,79.00
2023-03-06T12:58:45.848Z,78.30
2023-03-06T13:09:20.800Z,77.80
2023-03-06T13:19:28.120Z,74.00
2023-03-06T13:30:23.239Z,73.00
2023-03-06T13:40:37.165Z,74.20
2023-03-06T13:50:43.514Z,76.10
2023-03-06T14:01:08.134Z,75.00
2023-03-06T14:11:21.344Z,75.50
2023-03-06T14:21:31.929Z,79.20
2023-03-06T14:31:39.400Z,81.40
2023-03-06T14:41:44.805Z,85.70
2023-03-06T14:51:56.643Z,87.10
2023-03-06T15:02:05.104Z,88.50
2023-03-06T15:12:34.778Z,85.70
2023-03-06T15:22:42.019Z,83.10
2023-03-06T15:32:45.719Z,83.70
2023-03-06T15:42:51.256Z,82.60
2023-03-06T15:52:55.590Z,80.40
2023-03-06T16:03:01.343Z,78.50
2023-03-06T16:13:09.511Z,83.50
2023-03-06T16:23:16.037Z,84.40
2023-03-06T16:33:19.666Z,84.60
2023-03-06T16:43:27.667Z,86.10
2023-03-06T16:53:31.331Z,86.80
2023-03-06T17:03:37.048Z,87.60
2023-03-06T17:13:41.192Z,86.70
2023-03-06T17:23:46.405Z,87.10
2023-03-06T17:33:51.447Z,88.40
2023-03-06T17:43:58.840Z,89.40
2023-03-06T17:54:02.623Z,90.10
2023-03-06T18:04:07.841Z,90.90
2023-03-06T18:14:11.607Z,91.70
2023-03-06T18:24:16.760Z,92.30
2023-03-06T18:34:20.574Z,92.60
2023-03-06T18:44:25.701Z,93.20
2023-03-06T18:54:29.745Z,93.30
2023-03-06T19:04:37.210Z,93.30
2023-03-06T19:14:40.837Z,93.30
2023-03-06T19:24:46.784Z,93.30
2023-03-06T19:34:50.524Z,93.40
2023-03-06T19:44:56.359Z,93.40
2023-03-06T19:55:00.324Z,93.90
2023-03-06T20:05:09.183Z,94.60
2023-03-06T20:15:13.398Z,95.20
2023-03-06T20:25:19.103Z,95.50
2023-03-06T20:35:23.029Z,95.50
2023-03-06T20:45:28.139Z,96.00
2023-03-06T20:55:33.024Z,96.40
2023-03-06T21:05:38.165Z,97.00
2023-03-06T21:15:42.938Z,97.20
2023-03-06T21:25:53.815Z,97.50
2023-03-06T21:36:00.176Z,97.70
2023-03-06T21:46:06.368Z,98.20
2023-03-06T21:56:10.852Z,98.60
2023-03-06T22:06:19.260Z,98.80
2023-03-06T22:16:23.629Z,99.30
2023-03-06T22:26:32.272Z,99.90
2023-03-06T22:36:35.994Z,99.90
2023-03-06T22:46:41.706Z,99.90
2023-03-06T22:56:45.385Z,99.90
2023-03-06T23:06:50.351Z,99.90
2023-03-06T23:16:54.025Z,99.90
2023-03-06T23:26:59.243Z,99.90
2023-03-06T23:37:03.039Z,99.90
2023-03-06T23:47:08.217Z,99.90
2023-03-06T23:57:11.844Z,99.90
